sensor_id;sensor_type;location;lat;lon;timestamp;temperature;humidity
3202;DHT22;34843;48.744;8.958;2022-11-15T00:00:17;8.30;99.90
3202;DHT22;34843;48.744;8.958;2022-11-15T00:02:43;8.30;99.90
3202;DHT22;34843;48.744;8.958;2022-11-15T00:05:08;8.30;99.90
3202;DHT22;34843;48.744;8.958;2022-11-15T00:07:34;8.30;99.90
3202;DHT22;34843;48.744;8.958;2022-11-15T00:10:00;8.30;99.90
3202;DHT22;34843;48.744;8.958;2022-11-15T00:12:27;8.30;99.90
3202;DHT22;34843;48.744;8.958;2022-11-15T00:14:53;8.30;99.90
3202;DHT22;34843;48.744;8.958;2022-11-15T00:17:18;8.30;99.90
3202;DHT22;34843;48.744;8.958;2022-11-15T00:19:44;8.30;99.90
3202;DHT22;34843;48.744;8.958;2022-11-15T00:22:10;8.30;99.90
3202;DHT22;34843;48.744;8.958;2022-11-15T00:24:35;8.30;99.90
3202;DHT22;34843;48.744;8.958;2022-11-15T00:27:01;8.30;99.90
3202;DHT22;34843;48.744;8.958;2022-11-15T00:29:26;8.30;99.90
3202;DHT22;34843;48.744;8.958;2022-11-15T00:31:52;8.20;99.90
3202;DHT22;34843;48.744;8.958;2022-11-15T00:34:18;8.20;99.90
3202;DHT22;34843;48.744;8.958;2022-11-15T00:36:43;8.20;99.90
3202;DHT22;34843;48.744;8.958;2022-11-15T00:39:09;8.10;99.90
3202;DHT22;34843;48.744;8.958;2022-11-15T00:41:34;8.10;99.90
3202;DHT22;34843;48.744;8.958;2022-11-15T00:46:26;8.00;99.90
3202;DHT22;34843;48.744;8.958;2022-11-15T00:48:51;7.90;99.90
3202;DHT22;34843;48.744;8.958;2022-11-15T00:51:17;7.90;99.90
3202;DHT22;34843;48.744;8.958;2022-11-15T00:53:42;7.80;99.90
3202;DHT22;34843;48.744;8.958;2022-11-15T00:56:08;7.70;99.90
3202;DHT22;34843;48.744;8.958;2022-11-15T00:58:33;7.70;99.90
3202;DHT22;34843;48.744;8.958;2022-11-15T01:01:07;7.70;99.90
3202;DHT22;34843;48.744;8.958;2022-11-15T01:03:33;7.60;99.90
3202;DHT22;34843;48.744;8.958;2022-11-15T01:06:00;7.60;99.90
3202;DHT22;34843;48.744;8.958;2022-11-15T01:08:25;7.50;99.90
3202;DHT22;34843;48.744;8.958;2022-11-15T01:10:51;7.50;99.90
3202;DHT22;34843;48.744;8.958;2022-11-15T01:13:16;7.50;99.90
3202;DHT22;34843;48.744;8.958;2022-11-15T01:15:42;7.50;99.90
3202;DHT22;34843;48.744;8.958;2022-11-15T01:18:08;7.50;99.90
3202;DHT22;34843;48.744;8.958;2022-11-15T01:20:33;7.40;99.90
3202;DHT22;34843;48.744;8.958;2022-11-15T01:22:59;7.40;99.90
3202;DHT22;34843;48.744;8.958;2022-11-15T01:25:24;7.40;99.90
3202;DHT22;34843;48.744;8.958;2022-11-15T01:27:50;7.40;99.90
3202;DHT22;34843;48.744;8.958;2022-11-15T01:30:15;7.40;99.90
3202;DHT22;34843;48.744;8.958;2022-11-15T01:32:41;7.40;99.90
3202;DHT22;34843;48.744;8.958;2022-11-15T01:35:07;7.40;99.90
3202;DHT22;34843;48.744;8.958;2022-11-15T01:37:32;7.40;99.90
3202;DHT22;34843;48.744;8.958;2022-11-15T01:39:58;7.40;99.90
3202;DHT22;34843;48.744;8.958;2022-11-15T01:42:23;7.40;99.90
3202;DHT22;34843;48.744;8.958;2022-11-15T01:44:50;7.40;99.90
3202;DHT22;34843;48.744;8.958;2022-11-15T01:47:29;7.40;99.90
3202;DHT22;34843;48.744;8.958;2022-11-15T01:50:00;7.40;99.90
3202;DHT22;34843;48.744;8.958;2022-11-15T01:52:28;7.40;99.90
3202;DHT22;34843;48.744;8.958;2022-11-15T01:55:07;7.50;99.90
3202;DHT22;34843;48.744;8.958;2022-11-15T01:57:33;7.50;99.90
3202;DHT22;34843;48.744;8.958;2022-11-15T02:00:00;7.50;99.90
3202;DHT22;34843;48.744;8.958;2022-11-15T02:02:27;7.50;99.90
3202;DHT22;34843;48.744;8.958;2022-11-15T02:04:52;7.50;99.90
3202;DHT22;34843;48.744;8.958;2022-11-15T02:07:20;7.50;99.90
3202;DHT22;34843;48.744;8.958;2022-11-15T02:09:46;7.50;99.90
3202;DHT22;34843;48.744;8.958;2022-11-15T02:12:16;7.60;99.90
3202;DHT22;34843;48.744;8.958;2022-11-15T02:14:50;7.60;99.90
3202;DHT22;34843;48.744;8.958;2022-11-15T02:31:14;7.70;99.90
3202;DHT22;34843;48.744;8.958;2022-11-15T02:37:11;7.80;99.90
3202;DHT22;34843;48.744;8.958;2022-11-15T02:42:26;7.80;99.90
3202;DHT22;34843;48.744;8.958;2022-11-15T02:45:22;7.90;99.90
3202;DHT22;34843;48.744;8.958;2022-11-15T02:47:51;7.90;99.90
3202;DHT22;34843;48.744;8.958;2022-11-15T02:50:21;7.90;99.90
3202;DHT22;34843;48.744;8.958;2022-11-15T02:52:49;7.90;99.90
3202;DHT22;34843;48.744;8.958;2022-11-15T02:58:32;7.90;99.90
3202;DHT22;34843;48.744;8.958;2022-11-15T03:06:57;7.80;99.90
3202;DHT22;34843;48.744;8.958;2022-11-15T03:12:01;7.80;99.90
3202;DHT22;34843;48.744;8.958;2022-11-15T03:14:36;7.80;99.90
3202;DHT22;34843;48.744;8.958;2022-11-15T03:17:22;7.80;99.90
3202;DHT22;34843;48.744;8.958;2022-11-15T03:20:08;7.80;99.90
3202;DHT22;34843;48.744;8.958;2022-11-15T03:22:41;7.80;99.90
3202;DHT22;34843;48.744;8.958;2022-11-15T03:25:10;7.80;99.90
3202;DHT22;34843;48.744;8.958;2022-11-15T03:27:47;7.80;99.90
3202;DHT22;34843;48.744;8.958;2022-11-15T03:30:15;7.80;99.90
3202;DHT22;34843;48.744;8.958;2022-11-15T03:32:48;7.80;99.90
3202;DHT22;34843;48.744;8.958;2022-11-15T03:35:18;7.80;99.90
3202;DHT22;34843;48.744;8.958;2022-11-15T03:37:58;7.80;99.90
3202;DHT22;34843;48.744;8.958;2022-11-15T03:40:39;7.80;99.90
3202;DHT22;34843;48.744;8.958;2022-11-15T03:43:15;7.80;99.90
3202;DHT22;34843;48.744;8.958;2022-11-15T03:45:54;7.70;99.90
3202;DHT22;34843;48.744;8.958;2022-11-15T03:48:24;7.70;99.90
3202;DHT22;34843;48.744;8.958;2022-11-15T03:50:51;7.80;99.90
3202;DHT22;34843;48.744;8.958;2022-11-15T03:53:17;7.80;99.90
3202;DHT22;34843;48.744;8.958;2022-11-15T03:55:43;7.80;99.90
3202;DHT22;34843;48.744;8.958;2022-11-15T04:00:34;7.80;99.90
3202;DHT22;34843;48.744;8.958;2022-11-15T04:03:00;7.80;99.90
3202;DHT22;34843;48.744;8.958;2022-11-15T04:05:26;7.80;99.90
3202;DHT22;34843;48.744;8.958;2022-11-15T04:07:51;7.80;99.90
3202;DHT22;34843;48.744;8.958;2022-11-15T04:10:17;7.80;99.90
3202;DHT22;34843;48.744;8.958;2022-11-15T04:12:44;9.10;99.90
3202;DHT22;34843;48.744;8.958;2022-11-15T04:15:20;7.90;99.90
3202;DHT22;34843;48.744;8.958;2022-11-15T04:17:51;7.90;99.90
3202;DHT22;34843;48.744;8.958;2022-11-15T04:20:29;7.90;99.90
3202;DHT22;34843;48.744;8.958;2022-11-15T04:23:18;7.90;99.90
3202;DHT22;34843;48.744;8.958;2022-11-15T04:26:11;8.00;99.90
3202;DHT22;34843;48.744;8.958;2022-11-15T04:28:38;7.90;99.90
3202;DHT22;34843;48.744;8.958;2022-11-15T04:31:23;7.90;99.90
3202;DHT22;34843;48.744;8.958;2022-11-15T04:33:49;7.90;99.90
3202;DHT22;34843;48.744;8.958;2022-11-15T04:36:14;7.90;99.90
3202;DHT22;34843;48.744;8.958;2022-11-15T04:38:58;7.90;99.90
3202;DHT22;34843;48.744;8.958;2022-11-15T04:41:24;7.90;99.90
3202;DHT22;34843;48.744;8.958;2022-11-15T04:43:50;7.90;99.90
3202;DHT22;34843;48.744;8.958;2022-11-15T04:46:15;7.90;99.90
3202;DHT22;34843;48.744;8.958;2022-11-15T04:48:41;7.90;99.90
3202;DHT22;34843;48.744;8.958;2022-11-15T04:51:06;7.90;99.90
3202;DHT22;34843;48.744;8.958;2022-11-15T04:53:32;7.80;99.90
3202;DHT22;34843;48.744;8.958;2022-11-15T04:55:57;7.80;99.90
3202;DHT22;34843;48.744;8.958;2022-11-15T04:58:23;7.80;99.90
3202;DHT22;34843;48.744;8.958;2022-11-15T05:00:48;7.80;99.90
3202;DHT22;34843;48.744;8.958;2022-11-15T05:03:14;7.80;99.90
3202;DHT22;34843;48.744;8.958;2022-11-15T05:05:58;7.80;99.90
3202;DHT22;34843;48.744;8.958;2022-11-15T05:08:24;7.80;99.90
3202;DHT22;34843;48.744;8.958;2022-11-15T05:10:50;7.80;99.90
3202;DHT22;34843;48.744;8.958;2022-11-15T05:13:16;7.80;99.90
3202;DHT22;34843;48.744;8.958;2022-11-15T05:15:41;7.80;99.90
3202;DHT22;34843;48.744;8.958;2022-11-15T05:18:07;7.90;99.90
3202;DHT22;34843;48.744;8.958;2022-11-15T05:20:32;7.80;99.90
3202;DHT22;34843;48.744;8.958;2022-11-15T05:22:58;7.90;99.90
3202;DHT22;34843;48.744;8.958;2022-11-15T05:25:24;7.90;99.90
3202;DHT22;34843;48.744;8.958;2022-11-15T05:27:49;7.90;99.90
3202;DHT22;34843;48.744;8.958;2022-11-15T05:30:15;8.00;99.90
3202;DHT22;34843;48.744;8.958;2022-11-15T05:32:41;7.90;99.90
3202;DHT22;34843;48.744;8.958;2022-11-15T05:35:10;7.90;99.90
3202;DHT22;34843;48.744;8.958;2022-11-15T05:37:37;7.90;99.90
3202;DHT22;34843;48.744;8.958;2022-11-15T05:40:03;7.90;99.90
3202;DHT22;34843;48.744;8.958;2022-11-15T05:42:29;7.90;99.90
3202;DHT22;34843;48.744;8.958;2022-11-15T05:44:57;7.90;99.90
3202;DHT22;34843;48.744;8.958;2022-11-15T05:47:25;7.90;99.90
3202;DHT22;34843;48.744;8.958;2022-11-15T05:49:53;8.00;99.90
3202;DHT22;34843;48.744;8.958;2022-11-15T05:52:23;7.90;99.90
3202;DHT22;34843;48.744;8.958;2022-11-15T05:54:51;7.90;99.90
3202;DHT22;34843;48.744;8.958;2022-11-15T05:57:17;7.90;99.90
3202;DHT22;34843;48.744;8.958;2022-11-15T05:59:43;7.90;99.90
3202;DHT22;34843;48.744;8.958;2022-11-15T06:02:10;7.80;99.90
3202;DHT22;34843;48.744;8.958;2022-11-15T06:04:36;7.80;99.90
3202;DHT22;34843;48.744;8.958;2022-11-15T06:07:01;7.80;99.90
3202;DHT22;34843;48.744;8.958;2022-11-15T06:09:27;7.80;99.90
3202;DHT22;34843;48.744;8.958;2022-11-15T06:11:52;7.70;99.90
3202;DHT22;34843;48.744;8.958;2022-11-15T06:14:18;7.70;99.90
3202;DHT22;34843;48.744;8.958;2022-11-15T06:16:43;7.70;99.90
3202;DHT22;34843;48.744;8.958;2022-11-15T06:19:09;7.70;99.90
3202;DHT22;34843;48.744;8.958;2022-11-15T06:21:35;7.60;99.90
3202;DHT22;34843;48.744;8.958;2022-11-15T06:24:00;7.50;99.90
3202;DHT22;34843;48.744;8.958;2022-11-15T06:26:26;7.60;99.90
3202;DHT22;34843;48.744;8.958;2022-11-15T06:28:52;7.60;99.90
3202;DHT22;34843;48.744;8.958;2022-11-15T06:31:17;7.60;99.90
3202;DHT22;34843;48.744;8.958;2022-11-15T06:33:43;7.60;99.90
3202;DHT22;34843;48.744;8.958;2022-11-15T06:36:10;7.70;99.90
3202;DHT22;34843;48.744;8.958;2022-11-15T06:38:39;7.70;99.90
3202;DHT22;34843;48.744;8.958;2022-11-15T06:41:06;7.70;99.90
3202;DHT22;34843;48.744;8.958;2022-11-15T06:43:33;7.70;99.90
3202;DHT22;34843;48.744;8.958;2022-11-15T06:45:59;7.70;99.90
3202;DHT22;34843;48.744;8.958;2022-11-15T06:48:26;7.80;99.90
3202;DHT22;34843;48.744;8.958;2022-11-15T06:50:52;7.80;99.90
3202;DHT22;34843;48.744;8.958;2022-11-15T06:53:18;7.90;99.90
3202;DHT22;34843;48.744;8.958;2022-11-15T06:55:44;8.00;99.90
3202;DHT22;34843;48.744;8.958;2022-11-15T06:58:09;8.00;99.90
3202;DHT22;34843;48.744;8.958;2022-11-15T07:00:35;8.10;99.90
3202;DHT22;34843;48.744;8.958;2022-11-15T07:03:00;8.10;99.90
3202;DHT22;34843;48.744;8.958;2022-11-15T07:05:27;8.10;99.90
3202;DHT22;34843;48.744;8.958;2022-11-15T07:07:53;8.20;99.90
3202;DHT22;34843;48.744;8.958;2022-11-15T07:10:20;8.20;99.90
3202;DHT22;34843;48.744;8.958;2022-11-15T07:12:49;8.20;99.90
3202;DHT22;34843;48.744;8.958;2022-11-15T07:15:16;8.30;99.90
3202;DHT22;34843;48.744;8.958;2022-11-15T07:17:42;8.30;99.90
3202;DHT22;34843;48.744;8.958;2022-11-15T07:20:08;8.40;99.90
3202;DHT22;34843;48.744;8.958;2022-11-15T07:22:34;8.50;99.90
3202;DHT22;34843;48.744;8.958;2022-11-15T07:24:59;8.70;99.90
3202;DHT22;34843;48.744;8.958;2022-11-15T07:27:25;8.70;99.90
3202;DHT22;34843;48.744;8.958;2022-11-15T07:29:50;8.80;99.90
3202;DHT22;34843;48.744;8.958;2022-11-15T07:32:16;8.90;99.90
3202;DHT22;34843;48.744;8.958;2022-11-15T07:34:42;8.90;99.90
3202;DHT22;34843;48.744;8.958;2022-11-15T07:37:07;9.00;99.90
3202;DHT22;34843;48.744;8.958;2022-11-15T07:39:33;9.10;99.90
3202;DHT22;34843;48.744;8.958;2022-11-15T07:41:59;9.20;99.90
3202;DHT22;34843;48.744;8.958;2022-11-15T07:44:43;9.30;99.90
3202;DHT22;34843;48.744;8.958;2022-11-15T07:47:09;9.40;99.90
3202;DHT22;34843;48.744;8.958;2022-11-15T07:49:34;9.40;99.90
3202;DHT22;34843;48.744;8.958;2022-11-15T07:52:00;9.50;99.90
3202;DHT22;34843;48.744;8.958;2022-11-15T07:54:25;9.60;99.90
3202;DHT22;34843;48.744;8.958;2022-11-15T07:56:51;9.70;99.90
3202;DHT22;34843;48.744;8.958;2022-11-15T07:59:16;9.70;99.90
3202;DHT22;34843;48.744;8.958;2022-11-15T08:01:42;9.80;99.90
3202;DHT22;34843;48.744;8.958;2022-11-15T08:04:07;9.80;99.90
3202;DHT22;34843;48.744;8.958;2022-11-15T08:06:33;9.90;99.90
3202;DHT22;34843;48.744;8.958;2022-11-15T08:08:58;9.90;99.90
3202;DHT22;34843;48.744;8.958;2022-11-15T08:11:24;10.00;99.90
3202;DHT22;34843;48.744;8.958;2022-11-15T08:13:49;10.10;99.90
3202;DHT22;34843;48.744;8.958;2022-11-15T08:16:15;10.20;99.90
3202;DHT22;34843;48.744;8.958;2022-11-15T08:18:40;10.20;99.90
3202;DHT22;34843;48.744;8.958;2022-11-15T08:21:08;10.20;99.90
3202;DHT22;34843;48.744;8.958;2022-11-15T08:23:34;10.30;99.90
3202;DHT22;34843;48.744;8.958;2022-11-15T08:26:01;10.40;99.90
3202;DHT22;34843;48.744;8.958;2022-11-15T08:28:28;10.40;99.90
3202;DHT22;34843;48.744;8.958;2022-11-15T08:30:54;10.60;99.90
3202;DHT22;34843;48.744;8.958;2022-11-15T08:33:19;10.70;99.90
3202;DHT22;34843;48.744;8.958;2022-11-15T08:35:45;10.90;99.90
3202;DHT22;34843;48.744;8.958;2022-11-15T08:38:11;11.00;99.90
3202;DHT22;34843;48.744;8.958;2022-11-15T08:40:37;11.10;99.90
3202;DHT22;34843;48.744;8.958;2022-11-15T08:43:03;11.30;99.90
3202;DHT22;34843;48.744;8.958;2022-11-15T08:45:29;11.40;99.90
3202;DHT22;34843;48.744;8.958;2022-11-15T08:47:55;11.50;99.90
3202;DHT22;34843;48.744;8.958;2022-11-15T08:50:21;11.60;99.90
3202;DHT22;34843;48.744;8.958;2022-11-15T08:52:47;11.70;99.90
3202;DHT22;34843;48.744;8.958;2022-11-15T08:55:15;11.70;99.90
3202;DHT22;34843;48.744;8.958;2022-11-15T08:57:41;11.80;99.90
3202;DHT22;34843;48.744;8.958;2022-11-15T09:00:07;11.90;99.90
3202;DHT22;34843;48.744;8.958;2022-11-15T09:02:32;12.00;99.90
3202;DHT22;34843;48.744;8.958;2022-11-15T09:04:58;12.10;99.90
3202;DHT22;34843;48.744;8.958;2022-11-15T09:07:23;12.10;99.90
3202;DHT22;34843;48.744;8.958;2022-11-15T09:09:49;12.20;99.90
3202;DHT22;34843;48.744;8.958;2022-11-15T09:12:15;12.30;99.90
3202;DHT22;34843;48.744;8.958;2022-11-15T09:14:40;12.30;99.90
3202;DHT22;34843;48.744;8.958;2022-11-15T09:17:09;12.30;99.90
3202;DHT22;34843;48.744;8.958;2022-11-15T09:19:34;12.30;99.90
3202;DHT22;34843;48.744;8.958;2022-11-15T09:22:00;12.30;99.90
3202;DHT22;34843;48.744;8.958;2022-11-15T09:24:26;12.30;99.90
3202;DHT22;34843;48.744;8.958;2022-11-15T09:26:51;12.30;99.90
3202;DHT22;34843;48.744;8.958;2022-11-15T09:29:18;12.30;99.90
3202;DHT22;34843;48.744;8.958;2022-11-15T09:31:43;12.30;99.90
3202;DHT22;34843;48.744;8.958;2022-11-15T09:34:09;12.30;99.90
3202;DHT22;34843;48.744;8.958;2022-11-15T09:36:34;12.30;99.90
3202;DHT22;34843;48.744;8.958;2022-11-15T09:39:00;12.20;99.90
3202;DHT22;34843;48.744;8.958;2022-11-15T09:41:49;12.20;99.90
3202;DHT22;34843;48.744;8.958;2022-11-15T09:44:36;12.40;99.90
3202;DHT22;34843;48.744;8.958;2022-11-15T09:49:52;12.60;99.90
3202;DHT22;34843;48.744;8.958;2022-11-15T09:52:19;12.70;99.90
3202;DHT22;34843;48.744;8.958;2022-11-15T09:54:49;12.80;99.90
3202;DHT22;34843;48.744;8.958;2022-11-15T10:00:24;12.90;99.90
3202;DHT22;34843;48.744;8.958;2022-11-15T10:03:15;12.80;99.90
3202;DHT22;34843;48.744;8.958;2022-11-15T10:05:45;12.80;99.90
3202;DHT22;34843;48.744;8.958;2022-11-15T10:08:47;12.80;99.90
3202;DHT22;34843;48.744;8.958;2022-11-15T10:11:27;12.80;99.90
3202;DHT22;34843;48.744;8.958;2022-11-15T10:13:57;12.70;99.90
3202;DHT22;34843;48.744;8.958;2022-11-15T10:25:15;13.00;99.90
3202;DHT22;34843;48.744;8.958;2022-11-15T10:27:43;13.00;99.90
3202;DHT22;34843;48.744;8.958;2022-11-15T10:30:16;13.10;99.90
3202;DHT22;34843;48.744;8.958;2022-11-15T10:32:43;13.20;99.90
3202;DHT22;34843;48.744;8.958;2022-11-15T10:35:28;13.20;99.90
3202;DHT22;34843;48.744;8.958;2022-11-15T10:38:11;13.30;99.90
3202;DHT22;34843;48.744;8.958;2022-11-15T10:40:39;13.30;99.90
3202;DHT22;34843;48.744;8.958;2022-11-15T10:43:13;13.40;99.90
3202;DHT22;34843;48.744;8.958;2022-11-15T10:45:39;13.40;99.90
3202;DHT22;34843;48.744;8.958;2022-11-15T10:50:41;13.40;99.90
3202;DHT22;34843;48.744;8.958;2022-11-15T10:53:19;13.30;99.90
3202;DHT22;34843;48.744;8.958;2022-11-15T10:55:50;13.20;99.90
3202;DHT22;34843;48.744;8.958;2022-11-15T10:58:42;13.20;99.90
3202;DHT22;34843;48.744;8.958;2022-11-15T11:01:14;13.20;99.90
3202;DHT22;34843;48.744;8.958;2022-11-15T11:03:41;13.30;99.90
3202;DHT22;34843;48.744;8.958;2022-11-15T11:06:16;13.30;99.90
3202;DHT22;34843;48.744;8.958;2022-11-15T11:08:58;13.40;99.90
3202;DHT22;34843;48.744;8.958;2022-11-15T11:11:25;13.40;99.90
3202;DHT22;34843;48.744;8.958;2022-11-15T11:14:12;13.50;99.90
3202;DHT22;34843;48.744;8.958;2022-11-15T11:17:26;13.50;99.90
3202;DHT22;34843;48.744;8.958;2022-11-15T11:19:35;13.60;99.90
3202;DHT22;34843;48.744;8.958;2022-11-15T11:22:25;13.60;99.90
3202;DHT22;34843;48.744;8.958;2022-11-15T11:25:10;13.70;99.90
3202;DHT22;34843;48.744;8.958;2022-11-15T11:27:50;13.80;99.90
3202;DHT22;34843;48.744;8.958;2022-11-15T11:30:22;13.80;99.90
3202;DHT22;34843;48.744;8.958;2022-11-15T11:33:10;13.80;99.90
3202;DHT22;34843;48.744;8.958;2022-11-15T11:35:50;13.80;99.90
3202;DHT22;34843;48.744;8.958;2022-11-15T11:38:39;13.80;99.90
3202;DHT22;34843;48.744;8.958;2022-11-15T11:48:45;14.00;99.90
3202;DHT22;34843;48.744;8.958;2022-11-15T11:51:23;14.00;99.90
3202;DHT22;34843;48.744;8.958;2022-11-15T11:56:44;14.20;99.90
3202;DHT22;34843;48.744;8.958;2022-11-15T11:59:25;14.20;99.90
3202;DHT22;34843;48.744;8.958;2022-11-15T12:01:51;14.30;99.90
3202;DHT22;34843;48.744;8.958;2022-11-15T12:04:29;14.30;99.90
3202;DHT22;34843;48.744;8.958;2022-11-15T12:07:01;14.30;99.90
3202;DHT22;34843;48.744;8.958;2022-11-15T12:09:36;14.30;99.90
3202;DHT22;34843;48.744;8.958;2022-11-15T12:15:31;14.30;99.90
3202;DHT22;34843;48.744;8.958;2022-11-15T12:18:00;14.30;99.90
3202;DHT22;34843;48.744;8.958;2022-11-15T12:20:29;14.40;99.90
3202;DHT22;34843;48.744;8.958;2022-11-15T12:23:06;14.40;99.90
3202;DHT22;34843;48.744;8.958;2022-11-15T12:31:00;14.30;99.90
3202;DHT22;34843;48.744;8.958;2022-11-15T12:33:40;14.30;99.90
3202;DHT22;34843;48.744;8.958;2022-11-15T12:38:59;14.20;99.90
3202;DHT22;34843;48.744;8.958;2022-11-15T12:41:33;14.20;99.90
3202;DHT22;34843;48.744;8.958;2022-11-15T12:44:00;14.10;99.90
3202;DHT22;34843;48.744;8.958;2022-11-15T12:48:57;14.00;99.90
3202;DHT22;34843;48.744;8.958;2022-11-15T13:02:23;13.80;99.90
3202;DHT22;34843;48.744;8.958;2022-11-15T13:04:51;13.90;99.90
3202;DHT22;34843;48.744;8.958;2022-11-15T13:17:43;14.00;99.90
3202;DHT22;34843;48.744;8.958;2022-11-15T13:22:49;14.00;99.90
3202;DHT22;34843;48.744;8.958;2022-11-15T13:27:53;14.00;99.90
3202;DHT22;34843;48.744;8.958;2022-11-15T13:30:25;14.10;99.90
3202;DHT22;34843;48.744;8.958;2022-11-15T13:32:51;14.00;99.90
3202;DHT22;34843;48.744;8.958;2022-11-15T13:35:28;14.20;99.90
3202;DHT22;34843;48.744;8.958;2022-11-15T13:37:56;14.20;99.90
3202;DHT22;34843;48.744;8.958;2022-11-15T13:40:23;14.20;99.90
3202;DHT22;34843;48.744;8.958;2022-11-15T13:42:50;14.10;99.90
3202;DHT22;34843;48.744;8.958;2022-11-15T13:45:17;14.10;99.90
3202;DHT22;34843;48.744;8.958;2022-11-15T13:47:43;14.10;99.90
3202;DHT22;34843;48.744;8.958;2022-11-15T13:50:12;14.10;99.90
3202;DHT22;34843;48.744;8.958;2022-11-15T13:52:40;14.10;99.90
3202;DHT22;34843;48.744;8.958;2022-11-15T13:55:17;14.00;99.90
3202;DHT22;34843;48.744;8.958;2022-11-15T13:57:48;14.00;99.90
3202;DHT22;34843;48.744;8.958;2022-11-15T14:06:04;13.90;99.90
3202;DHT22;34843;48.744;8.958;2022-11-15T14:08:31;13.80;99.90
3202;DHT22;34843;48.744;8.958;2022-11-15T14:11:13;13.80;99.90
3202;DHT22;34843;48.744;8.958;2022-11-15T14:13:40;13.70;99.90
3202;DHT22;34843;48.744;8.958;2022-11-15T14:16:20;13.60;99.90
3202;DHT22;34843;48.744;8.958;2022-11-15T14:18:49;13.60;99.90
3202;DHT22;34843;48.744;8.958;2022-11-15T14:21:15;13.60;99.90
3202;DHT22;34843;48.744;8.958;2022-11-15T14:23:41;13.60;99.90
3202;DHT22;34843;48.744;8.958;2022-11-15T14:31:53;13.60;99.90
3202;DHT22;34843;48.744;8.958;2022-11-15T14:34:19;13.60;99.90
3202;DHT22;34843;48.744;8.958;2022-11-15T14:36:47;13.50;99.90
3202;DHT22;34843;48.744;8.958;2022-11-15T14:39:12;13.50;99.90
3202;DHT22;34843;48.744;8.958;2022-11-15T14:41:38;13.50;99.90
3202;DHT22;34843;48.744;8.958;2022-11-15T14:44:04;13.50;99.90
3202;DHT22;34843;48.744;8.958;2022-11-15T14:46:30;13.40;99.90
3202;DHT22;34843;48.744;8.958;2022-11-15T14:48:56;13.40;99.90
3202;DHT22;34843;48.744;8.958;2022-11-15T14:51:22;13.40;99.90
3202;DHT22;34843;48.744;8.958;2022-11-15T14:53:48;13.40;99.90
3202;DHT22;34843;48.744;8.958;2022-11-15T14:56:14;13.30;99.90
3202;DHT22;34843;48.744;8.958;2022-11-15T14:58:41;13.30;99.90
3202;DHT22;34843;48.744;8.958;2022-11-15T15:01:25;13.30;99.90
3202;DHT22;34843;48.744;8.958;2022-11-15T15:03:52;13.30;99.90
3202;DHT22;34843;48.744;8.958;2022-11-15T15:06:21;13.20;99.90
3202;DHT22;34843;48.744;8.958;2022-11-15T15:08:47;13.20;99.90
3202;DHT22;34843;48.744;8.958;2022-11-15T15:11:26;13.10;99.90
3202;DHT22;34843;48.744;8.958;2022-11-15T15:13:53;13.10;99.90
3202;DHT22;34843;48.744;8.958;2022-11-15T15:16:21;13.10;99.90
3202;DHT22;34843;48.744;8.958;2022-11-15T15:18:47;13.10;99.90
3202;DHT22;34843;48.744;8.958;2022-11-15T15:21:24;13.10;99.90
3202;DHT22;34843;48.744;8.958;2022-11-15T15:23:50;13.00;99.90
3202;DHT22;34843;48.744;8.958;2022-11-15T15:26:16;13.00;99.90
3202;DHT22;34843;48.744;8.958;2022-11-15T15:28:42;13.00;99.90
3202;DHT22;34843;48.744;8.958;2022-11-15T15:31:09;12.90;99.90
3202;DHT22;34843;48.744;8.958;2022-11-15T15:33:35;12.90;99.90
3202;DHT22;34843;48.744;8.958;2022-11-15T15:36:00;12.80;99.90
3202;DHT22;34843;48.744;8.958;2022-11-15T15:38:26;12.80;99.90
3202;DHT22;34843;48.744;8.958;2022-11-15T15:40:52;12.80;99.90
3202;DHT22;34843;48.744;8.958;2022-11-15T15:43:17;12.80;99.90
3202;DHT22;34843;48.744;8.958;2022-11-15T15:45:43;12.70;99.90
3202;DHT22;34843;48.744;8.958;2022-11-15T15:48:15;12.70;99.90
3202;DHT22;34843;48.744;8.958;2022-11-15T15:50:42;12.70;99.90
3202;DHT22;34843;48.744;8.958;2022-11-15T15:53:12;12.60;99.90
3202;DHT22;34843;48.744;8.958;2022-11-15T15:55:38;12.60;99.90
3202;DHT22;34843;48.744;8.958;2022-11-15T15:58:05;12.60;99.90
3202;DHT22;34843;48.744;8.958;2022-11-15T16:00:31;12.60;99.90
3202;DHT22;34843;48.744;8.958;2022-11-15T16:02:59;12.60;99.90
3202;DHT22;34843;48.744;8.958;2022-11-15T16:05:25;12.60;99.90
3202;DHT22;34843;48.744;8.958;2022-11-15T16:07:51;12.60;99.90
3202;DHT22;34843;48.744;8.958;2022-11-15T16:10:21;12.60;99.90
3202;DHT22;34843;48.744;8.958;2022-11-15T16:12:47;12.60;99.90
3202;DHT22;34843;48.744;8.958;2022-11-15T16:15:12;12.50;99.90
3202;DHT22;34843;48.744;8.958;2022-11-15T16:22:52;12.50;99.90
3202;DHT22;34843;48.744;8.958;2022-11-15T16:25:18;12.50;99.90
3202;DHT22;34843;48.744;8.958;2022-11-15T16:27:43;12.50;99.90
3202;DHT22;34843;48.744;8.958;2022-11-15T16:30:18;12.50;99.90
3202;DHT22;34843;48.744;8.958;2022-11-15T16:32:44;12.50;99.90
3202;DHT22;34843;48.744;8.958;2022-11-15T16:35:14;12.50;99.90
3202;DHT22;34843;48.744;8.958;2022-11-15T16:37:41;12.40;99.90
3202;DHT22;34843;48.744;8.958;2022-11-15T16:42:49;12.40;99.90
3202;DHT22;34843;48.744;8.958;2022-11-15T16:45:15;12.40;99.90
3202;DHT22;34843;48.744;8.958;2022-11-15T16:47:40;12.40;99.90
3202;DHT22;34843;48.744;8.958;2022-11-15T16:50:10;12.40;99.90
3202;DHT22;34843;48.744;8.958;2022-11-15T16:52:39;12.30;99.90
3202;DHT22;34843;48.744;8.958;2022-11-15T16:55:05;12.30;99.90
3202;DHT22;34843;48.744;8.958;2022-11-15T16:57:30;12.30;99.90
3202;DHT22;34843;48.744;8.958;2022-11-15T16:59:56;12.30;99.90
3202;DHT22;34843;48.744;8.958;2022-11-15T17:02:21;12.30;99.90
3202;DHT22;34843;48.744;8.958;2022-11-15T17:04:47;12.30;99.90
3202;DHT22;34843;48.744;8.958;2022-11-15T17:07:12;12.30;99.90
3202;DHT22;34843;48.744;8.958;2022-11-15T17:09:38;12.20;99.90
3202;DHT22;34843;48.744;8.958;2022-11-15T17:12:03;12.30;99.90
3202;DHT22;34843;48.744;8.958;2022-11-15T17:14:30;9.80;99.90
3202;DHT22;34843;48.744;8.958;2022-11-15T17:16:55;12.20;99.90
3202;DHT22;34843;48.744;8.958;2022-11-15T17:19:21;12.10;99.90
3202;DHT22;34843;48.744;8.958;2022-11-15T17:21:48;12.10;99.90
3202;DHT22;34843;48.744;8.958;2022-11-15T17:24:14;12.10;99.90
3202;DHT22;34843;48.744;8.958;2022-11-15T17:26:39;12.20;99.90
3202;DHT22;34843;48.744;8.958;2022-11-15T17:29:07;12.10;99.90
3202;DHT22;34843;48.744;8.958;2022-11-15T17:31:34;12.10;99.90
3202;DHT22;34843;48.744;8.958;2022-11-15T17:34:01;12.10;99.90
3202;DHT22;34843;48.744;8.958;2022-11-15T17:36:27;12.00;99.90
3202;DHT22;34843;48.744;8.958;2022-11-15T17:38:53;12.00;99.90
3202;DHT22;34843;48.744;8.958;2022-11-15T17:41:18;11.90;99.90
3202;DHT22;34843;48.744;8.958;2022-11-15T17:43:45;12.00;99.90
3202;DHT22;34843;48.744;8.958;2022-11-15T17:46:16;11.90;99.90
3202;DHT22;34843;48.744;8.958;2022-11-15T17:48:44;11.90;99.90
3202;DHT22;34843;48.744;8.958;2022-11-15T17:51:11;11.90;99.90
3202;DHT22;34843;48.744;8.958;2022-11-15T17:53:42;11.90;99.90
3202;DHT22;34843;48.744;8.958;2022-11-15T17:56:19;11.80;99.90
3202;DHT22;34843;48.744;8.958;2022-11-15T18:01:20;11.80;99.90
3202;DHT22;34843;48.744;8.958;2022-11-15T18:03:46;11.80;99.90
3202;DHT22;34843;48.744;8.958;2022-11-15T18:06:13;11.80;99.90
3202;DHT22;34843;48.744;8.958;2022-11-15T18:08:41;11.80;99.90